sensor_id;sensor_type;location;lat;lon;timestamp;P1;durP1;ratioP1;P2;durP2;ratioP2
21000;SDS011;10658;50.920;12.238;2023-11-18T00:00:56;4.75;;;2.50;;
21000;SDS011;10658;50.920;12.238;2023-11-18T00:04:58;2.67;;;1.95;;
21000;SDS011;10658;50.920;12.238;2023-11-18T00:09:00;2.05;;;1.60;;
21000;SDS011;10658;50.920;12.238;2023-11-18T00:13:03;3.95;;;2.75;;
21000;SDS011;10658;50.920;12.238;2023-11-18T00:17:04;3.97;;;2.55;;
21000;SDS011;10658;50.920;12.238;2023-11-18T00:21:05;4.68;;;2.72;;
21000;SDS011;10658;50.920;12.238;2023-11-18T00:25:07;5.90;;;2.35;;
21000;SDS011;10658;50.920;12.238;2023-11-18T00:29:09;3.85;;;1.80;;
21000;SDS011;10658;50.920;12.238;2023-11-18T00:33:10;4.65;;;2.58;;
21000;SDS011;10658;50.920;12.238;2023-11-18T00:37:10;4.38;;;3.00;;
21000;SDS011;10658;50.920;12.238;2023-11-18T00:41:11;4.10;;;2.47;;
21000;SDS011;10658;50.920;12.238;2023-11-18T00:45:13;4.25;;;2.65;;
21000;SDS011;10658;50.920;12.238;2023-11-18T00:49:14;4.68;;;2.83;;
21000;SDS011;10658;50.920;12.238;2023-11-18T00:53:16;3.92;;;2.38;;
21000;SDS011;10658;50.920;12.238;2023-11-18T00:57:16;3.20;;;2.40;;
21000;SDS011;10658;50.920;12.238;2023-11-18T01:01:17;3.33;;;2.40;;
21000;SDS011;10658;50.920;12.238;2023-11-18T01:05:18;2.40;;;1.92;;
21000;SDS011;10658;50.920;12.238;2023-11-18T01:09:20;3.72;;;2.25;;
21000;SDS011;10658;50.920;12.238;2023-11-18T01:13:20;3.70;;;2.40;;
21000;SDS011;10658;50.920;12.238;2023-11-18T01:17:21;3.33;;;2.67;;
21000;SDS011;10658;50.920;12.238;2023-11-18T01:21:23;2.75;;;1.85;;
21000;SDS011;10658;50.920;12.238;2023-11-18T01:25:24;4.93;;;2.03;;
21000;SDS011;10658;50.920;12.238;2023-11-18T01:29:25;3.75;;;2.33;;
21000;SDS011;10658;50.920;12.238;2023-11-18T01:33:29;3.75;;;2.38;;
21000;SDS011;10658;50.920;12.238;2023-11-18T01:37:32;3.05;;;2.15;;
21000;SDS011;10658;50.920;12.238;2023-11-18T01:41:34;5.88;;;2.83;;
21000;SDS011;10658;50.920;12.238;2023-11-18T01:45:36;6.10;;;2.33;;
21000;SDS011;10658;50.920;12.238;2023-11-18T01:49:37;2.70;;;2.03;;
21000;SDS011;10658;50.920;12.238;2023-11-18T01:53:40;2.53;;;2.30;;
21000;SDS011;10658;50.920;12.238;2023-11-18T01:57:44;2.70;;;1.88;;
21000;SDS011;10658;50.920;12.238;2023-11-18T02:01:49;2.25;;;1.83;;
21000;SDS011;10658;50.920;12.238;2023-11-18T02:05:54;2.75;;;2.10;;
21000;SDS011;10658;50.920;12.238;2023-11-18T02:09:55;3.80;;;2.15;;
21000;SDS011;10658;50.920;12.238;2023-11-18T02:13:56;3.20;;;2.30;;
21000;SDS011;10658;50.920;12.238;2023-11-18T02:18:03;3.83;;;2.38;;
21000;SDS011;10658;50.920;12.238;2023-11-18T02:22:10;3.58;;;2.70;;
21000;SDS011;10658;50.920;12.238;2023-11-18T02:26:20;5.13;;;2.60;;
21000;SDS011;10658;50.920;12.238;2023-11-18T02:30:22;2.83;;;2.38;;
21000;SDS011;10658;50.920;12.238;2023-11-18T02:34:24;4.63;;;2.88;;
21000;SDS011;10658;50.920;12.238;2023-11-18T02:38:29;5.35;;;2.60;;
21000;SDS011;10658;50.920;12.238;2023-11-18T02:42:36;3.80;;;2.22;;
21000;SDS011;10658;50.920;12.238;2023-11-18T02:46:38;3.30;;;2.33;;
21000;SDS011;10658;50.920;12.238;2023-11-18T02:50:43;4.15;;;2.80;;
21000;SDS011;10658;50.920;12.238;2023-11-18T02:54:44;5.32;;;3.05;;
21000;SDS011;10658;50.920;12.238;2023-11-18T02:58:45;3.38;;;2.58;;
21000;SDS011;10658;50.920;12.238;2023-11-18T03:02:46;5.47;;;2.78;;
21000;SDS011;10658;50.920;12.238;2023-11-18T03:06:48;4.70;;;2.90;;
21000;SDS011;10658;50.920;12.238;2023-11-18T03:10:51;6.60;;;3.22;;
21000;SDS011;10658;50.920;12.238;2023-11-18T03:14:52;4.35;;;2.63;;
21000;SDS011;10658;50.920;12.238;2023-11-18T03:18:54;6.45;;;3.72;;
21000;SDS011;10658;50.920;12.238;2023-11-18T03:22:55;7.30;;;3.17;;
21000;SDS011;10658;50.920;12.238;2023-11-18T03:27:02;5.75;;;3.13;;
21000;SDS011;10658;50.920;12.238;2023-11-18T03:31:03;4.20;;;3.17;;
21000;SDS011;10658;50.920;12.238;2023-11-18T03:35:05;5.20;;;2.80;;
21000;SDS011;10658;50.920;12.238;2023-11-18T03:39:09;4.70;;;3.40;;
21000;SDS011;10658;50.920;12.238;2023-11-18T03:43:11;6.70;;;3.42;;
21000;SDS011;10658;50.920;12.238;2023-11-18T03:47:14;4.80;;;3.28;;
21000;SDS011;10658;50.920;12.238;2023-11-18T03:51:15;7.05;;;3.28;;
21000;SDS011;10658;50.920;12.238;2023-11-18T03:55:19;8.10;;;3.78;;
21000;SDS011;10658;50.920;12.238;2023-11-18T03:59:20;5.13;;;3.40;;
21000;SDS011;10658;50.920;12.238;2023-11-18T04:03:21;6.85;;;3.50;;
21000;SDS011;10658;50.920;12.238;2023-11-18T04:07:22;4.45;;;3.13;;
21000;SDS011;10658;50.920;12.238;2023-11-18T04:11:23;8.35;;;3.50;;
21000;SDS011;10658;50.920;12.238;2023-11-18T04:15:24;6.70;;;3.78;;
21000;SDS011;10658;50.920;12.238;2023-11-18T04:19:27;6.65;;;3.50;;
21000;SDS011;10658;50.920;12.238;2023-11-18T04:23:28;6.05;;;3.65;;
21000;SDS011;10658;50.920;12.238;2023-11-18T04:27:31;6.82;;;3.35;;
21000;SDS011;10658;50.920;12.238;2023-11-18T04:31:32;6.32;;;3.92;;
21000;SDS011;10658;50.920;12.238;2023-11-18T04:35:34;5.93;;;3.92;;
21000;SDS011;10658;50.920;12.238;2023-11-18T04:39:36;5.25;;;3.05;;
21000;SDS011;10658;50.920;12.238;2023-11-18T04:43:37;6.18;;;3.70;;
21000;SDS011;10658;50.920;12.238;2023-11-18T04:47:41;12.85;;;4.15;;
21000;SDS011;10658;50.920;12.238;2023-11-18T04:51:43;5.00;;;3.35;;
21000;SDS011;10658;50.920;12.238;2023-11-18T04:55:44;6.20;;;3.53;;
21000;SDS011;10658;50.920;12.238;2023-11-18T04:59:45;8.57;;;4.68;;
21000;SDS011;10658;50.920;12.238;2023-11-18T05:03:45;4.95;;;3.60;;
21000;SDS011;10658;50.920;12.238;2023-11-18T05:07:46;6.32;;;3.55;;
21000;SDS011;10658;50.920;12.238;2023-11-18T05:11:47;4.97;;;3.15;;
21000;SDS011;10658;50.920;12.238;2023-11-18T05:15:48;6.38;;;3.97;;
21000;SDS011;10658;50.920;12.238;2023-11-18T05:19:50;11.88;;;3.97;;
21000;SDS011;10658;50.920;12.238;2023-11-18T05:23:51;6.65;;;3.90;;
21000;SDS011;10658;50.920;12.238;2023-11-18T05:27:51;6.22;;;4.20;;
21000;SDS011;10658;50.920;12.238;2023-11-18T05:31:52;5.95;;;3.88;;
21000;SDS011;10658;50.920;12.238;2023-11-18T05:35:54;6.20;;;3.30;;
21000;SDS011;10658;50.920;12.238;2023-11-18T05:39:55;6.22;;;3.90;;
21000;SDS011;10658;50.920;12.238;2023-11-18T05:44:00;5.25;;;3.60;;
21000;SDS011;10658;50.920;12.238;2023-11-18T05:48:01;6.88;;;3.92;;
21000;SDS011;10658;50.920;12.238;2023-11-18T05:52:03;7.35;;;3.72;;
21000;SDS011;10658;50.920;12.238;2023-11-18T05:56:05;4.70;;;2.97;;
21000;SDS011;10658;50.920;12.238;2023-11-18T06:00:06;4.18;;;3.10;;
21000;SDS011;10658;50.920;12.238;2023-11-18T06:04:12;7.10;;;4.30;;
21000;SDS011;10658;50.920;12.238;2023-11-18T06:08:13;6.72;;;3.67;;
21000;SDS011;10658;50.920;12.238;2023-11-18T06:12:14;5.97;;;3.78;;
21000;SDS011;10658;50.920;12.238;2023-11-18T06:16:20;5.65;;;3.28;;
21000;SDS011;10658;50.920;12.238;2023-11-18T06:20:21;6.78;;;4.05;;
21000;SDS011;10658;50.920;12.238;2023-11-18T06:24:24;8.95;;;5.03;;
21000;SDS011;10658;50.920;12.238;2023-11-18T06:28:25;5.70;;;4.15;;
21000;SDS011;10658;50.920;12.238;2023-11-18T06:32:26;6.78;;;4.63;;
21000;SDS011;10658;50.920;12.238;2023-11-18T06:36:27;10.43;;;4.45;;
21000;SDS011;10658;50.920;12.238;2023-11-18T06:40:29;7.60;;;4.30;;
21000;SDS011;10658;50.920;12.238;2023-11-18T06:44:30;7.40;;;4.50;;
21000;SDS011;10658;50.920;12.238;2023-11-18T06:48:31;5.85;;;3.75;;
21000;SDS011;10658;50.920;12.238;2023-11-18T06:52:33;8.05;;;4.18;;
21000;SDS011;10658;50.920;12.238;2023-11-18T06:56:42;8.75;;;3.92;;
21000;SDS011;10658;50.920;12.238;2023-11-18T07:00:43;6.43;;;3.80;;
21000;SDS011;10658;50.920;12.238;2023-11-18T07:04:45;7.35;;;4.32;;
21000;SDS011;10658;50.920;12.238;2023-11-18T07:08:46;7.22;;;4.10;;
21000;SDS011;10658;50.920;12.238;2023-11-18T07:12:49;8.45;;;4.75;;
21000;SDS011;10658;50.920;12.238;2023-11-18T07:16:50;7.93;;;4.65;;
21000;SDS011;10658;50.920;12.238;2023-11-18T07:20:51;9.38;;;4.28;;
21000;SDS011;10658;50.920;12.238;2023-11-18T07:24:52;8.52;;;5.10;;
21000;SDS011;10658;50.920;12.238;2023-11-18T07:28:53;6.93;;;4.57;;
21000;SDS011;10658;50.920;12.238;2023-11-18T07:32:54;8.45;;;4.07;;
21000;SDS011;10658;50.920;12.238;2023-11-18T07:36:56;8.88;;;5.20;;
21000;SDS011;10658;50.920;12.238;2023-11-18T07:40:57;10.20;;;6.28;;
21000;SDS011;10658;50.920;12.238;2023-11-18T07:44:57;12.60;;;5.95;;
21000;SDS011;10658;50.920;12.238;2023-11-18T07:48:58;9.38;;;4.95;;
21000;SDS011;10658;50.920;12.238;2023-11-18T07:53:01;9.75;;;5.97;;
21000;SDS011;10658;50.920;12.238;2023-11-18T07:57:03;9.70;;;5.65;;
21000;SDS011;10658;50.920;12.238;2023-11-18T08:01:11;7.22;;;5.35;;
21000;SDS011;10658;50.920;12.238;2023-11-18T08:05:12;10.93;;;6.15;;
21000;SDS011;10658;50.920;12.238;2023-11-18T08:09:15;10.13;;;6.07;;
21000;SDS011;10658;50.920;12.238;2023-11-18T08:13:22;35.53;;;16.95;;
21000;SDS011;10658;50.920;12.238;2023-11-18T08:17:24;16.15;;;8.50;;
21000;SDS011;10658;50.920;12.238;2023-11-18T08:21:25;19.63;;;8.05;;
21000;SDS011;10658;50.920;12.238;2023-11-18T08:25:26;15.27;;;7.97;;
21000;SDS011;10658;50.920;12.238;2023-11-18T08:29:27;14.35;;;7.13;;
21000;SDS011;10658;50.920;12.238;2023-11-18T08:33:31;10.25;;;7.05;;
21000;SDS011;10658;50.920;12.238;2023-11-18T08:37:33;12.02;;;8.00;;
21000;SDS011;10658;50.920;12.238;2023-11-18T08:41:40;19.77;;;8.85;;
21000;SDS011;10658;50.920;12.238;2023-11-18T08:45:43;14.43;;;8.20;;
21000;SDS011;10658;50.920;12.238;2023-11-18T08:49:44;10.82;;;6.43;;
21000;SDS011;10658;50.920;12.238;2023-11-18T08:53:46;12.45;;;6.38;;
21000;SDS011;10658;50.920;12.238;2023-11-18T08:57:49;11.85;;;7.22;;
21000;SDS011;10658;50.920;12.238;2023-11-18T09:01:59;11.50;;;7.13;;
21000;SDS011;10658;50.920;12.238;2023-11-18T09:06:06;13.30;;;7.00;;
21000;SDS011;10658;50.920;12.238;2023-11-18T09:10:17;12.10;;;7.25;;
21000;SDS011;10658;50.920;12.238;2023-11-18T09:14:21;13.80;;;6.10;;
21000;SDS011;10658;50.920;12.238;2023-11-18T09:18:26;12.77;;;6.70;;
21000;SDS011;10658;50.920;12.238;2023-11-18T09:22:33;10.55;;;7.22;;
21000;SDS011;10658;50.920;12.238;2023-11-18T09:26:37;12.55;;;7.65;;
21000;SDS011;10658;50.920;12.238;2023-11-18T09:30:43;13.05;;;7.70;;
21000;SDS011;10658;50.920;12.238;2023-11-18T09:40:24;12.52;;;6.53;;
21000;SDS011;10658;50.920;12.238;2023-11-18T09:44:38;12.07;;;6.72;;
21000;SDS011;10658;50.920;12.238;2023-11-18T09:48:51;13.15;;;7.78;;
21000;SDS011;10658;50.920;12.238;2023-11-18T09:53:45;11.15;;;6.20;;
21000;SDS011;10658;50.920;12.238;2023-11-18T09:57:55;12.15;;;6.60;;
21000;SDS011;10658;50.920;12.238;2023-11-18T10:02:24;11.27;;;6.68;;
21000;SDS011;10658;50.920;12.238;2023-11-18T10:06:45;11.45;;;6.97;;
21000;SDS011;10658;50.920;12.238;2023-11-18T10:11:21;14.90;;;7.28;;
21000;SDS011;10658;50.920;12.238;2023-11-18T10:15:49;12.60;;;6.93;;
21000;SDS011;10658;50.920;12.238;2023-11-18T10:24:48;9.98;;;6.80;;
21000;SDS011;10658;50.920;12.238;2023-11-18T10:29:12;11.45;;;7.13;;
21000;SDS011;10658;50.920;12.238;2023-11-18T10:33:58;10.88;;;6.10;;
21000;SDS011;10658;50.920;12.238;2023-11-18T10:38:18;13.32;;;8.13;;
21000;SDS011;10658;50.920;12.238;2023-11-18T10:42:19;12.52;;;7.10;;
21000;SDS011;10658;50.920;12.238;2023-11-18T10:46:20;11.45;;;6.55;;
21000;SDS011;10658;50.920;12.238;2023-11-18T10:50:22;12.85;;;7.15;;
21000;SDS011;10658;50.920;12.238;2023-11-18T10:54:24;11.52;;;6.72;;
21000;SDS011;10658;50.920;12.238;2023-11-18T10:58:34;11.50;;;6.47;;
21000;SDS011;10658;50.920;12.238;2023-11-18T11:02:57;9.75;;;6.68;;
21000;SDS011;10658;50.920;12.238;2023-11-18T11:06:58;11.30;;;6.18;;
21000;SDS011;10658;50.920;12.238;2023-11-18T11:11:03;7.30;;;4.80;;
21000;SDS011;10658;50.920;12.238;2023-11-18T11:15:08;10.63;;;6.00;;
21000;SDS011;10658;50.920;12.238;2023-11-18T11:19:24;9.27;;;4.93;;
21000;SDS011;10658;50.920;12.238;2023-11-18T11:27:43;10.52;;;5.95;;
21000;SDS011;10658;50.920;12.238;2023-11-18T11:31:57;8.68;;;5.28;;
21000;SDS011;10658;50.920;12.238;2023-11-18T11:36:13;10.60;;;6.15;;
21000;SDS011;10658;50.920;12.238;2023-11-18T11:40:23;7.97;;;5.18;;
21000;SDS011;10658;50.920;12.238;2023-11-18T11:44:24;13.35;;;8.27;;
21000;SDS011;10658;50.920;12.238;2023-11-18T11:48:31;6.13;;;4.20;;
21000;SDS011;10658;50.920;12.238;2023-11-18T11:52:36;11.77;;;5.15;;
21000;SDS011;10658;50.920;12.238;2023-11-18T11:56:48;7.97;;;3.78;;
21000;SDS011;10658;50.920;12.238;2023-11-18T12:00:55;7.72;;;4.93;;
21000;SDS011;10658;50.920;12.238;2023-11-18T12:04:58;9.20;;;4.75;;
21000;SDS011;10658;50.920;12.238;2023-11-18T12:09:08;6.93;;;3.88;;
21000;SDS011;10658;50.920;12.238;2023-11-18T12:13:10;3.20;;;2.65;;
21000;SDS011;10658;50.920;12.238;2023-11-18T12:17:19;6.60;;;3.13;;
21000;SDS011;10658;50.920;12.238;2023-11-18T12:21:53;3.97;;;2.45;;
21000;SDS011;10658;50.920;12.238;2023-11-18T12:25:58;9.63;;;2.40;;
21000;SDS011;10658;50.920;12.238;2023-11-18T12:29:59;2.10;;;1.90;;
21000;SDS011;10658;50.920;12.238;2023-11-18T12:34:21;2.85;;;1.70;;
21000;SDS011;10658;50.920;12.238;2023-11-18T12:43:47;6.03;;;2.53;;
21000;SDS011;10658;50.920;12.238;2023-11-18T12:47:54;2.20;;;1.50;;
21000;SDS011;10658;50.920;12.238;2023-11-18T12:51:55;1.90;;;1.77;;
21000;SDS011;10658;50.920;12.238;2023-11-18T12:55:57;3.72;;;2.53;;
21000;SDS011;10658;50.920;12.238;2023-11-18T12:59:59;4.82;;;2.65;;
21000;SDS011;10658;50.920;12.238;2023-11-18T13:04:00;1.73;;;1.48;;
21000;SDS011;10658;50.920;12.238;2023-11-18T13:08:05;2.78;;;1.27;;
21000;SDS011;10658;50.920;12.238;2023-11-18T13:12:07;2.33;;;1.33;;
21000;SDS011;10658;50.920;12.238;2023-11-18T13:16:09;2.22;;;1.25;;
21000;SDS011;10658;50.920;12.238;2023-11-18T13:20:13;1.45;;;1.10;;
21000;SDS011;10658;50.920;12.238;2023-11-18T13:24:15;2.08;;;1.40;;
21000;SDS011;10658;50.920;12.238;2023-11-18T13:28:15;1.95;;;1.60;;
21000;SDS011;10658;50.920;12.238;2023-11-18T13:32:18;1.35;;;1.25;;
21000;SDS011;10658;50.920;12.238;2023-11-18T13:36:23;1.20;;;1.10;;
21000;SDS011;10658;50.920;12.238;2023-11-18T13:40:25;1.55;;;1.20;;
21000;SDS011;10658;50.920;12.238;2023-11-18T13:48:38;3.17;;;1.63;;
21000;SDS011;10658;50.920;12.238;2023-11-18T13:52:40;1.92;;;1.70;;
21000;SDS011;10658;50.920;12.238;2023-11-18T13:56:41;3.67;;;2.53;;
21000;SDS011;10658;50.920;12.238;2023-11-18T14:00:42;6.60;;;2.80;;
21000;SDS011;10658;50.920;12.238;2023-11-18T14:04:43;3.28;;;2.50;;
21000;SDS011;10658;50.920;12.238;2023-11-18T14:08:44;4.65;;;3.08;;
21000;SDS011;10658;50.920;12.238;2023-11-18T14:12:58;10.32;;;4.88;;
21000;SDS011;10658;50.920;12.238;2023-11-18T14:17:04;8.27;;;4.88;;
21000;SDS011;10658;50.920;12.238;2023-11-18T14:21:07;8.32;;;4.47;;
21000;SDS011;10658;50.920;12.238;2023-11-18T14:25:08;8.65;;;4.72;;
21000;SDS011;10658;50.920;12.238;2023-11-18T14:29:08;7.15;;;3.30;;
21000;SDS011;10658;50.920;12.238;2023-11-18T14:33:11;2.28;;;1.10;;
21000;SDS011;10658;50.920;12.238;2023-11-18T14:37:12;2.17;;;1.35;;
21000;SDS011;10658;50.920;12.238;2023-11-18T14:41:15;3.65;;;1.35;;
21000;SDS011;10658;50.920;12.238;2023-11-18T14:45:16;1.38;;;1.27;;
21000;SDS011;10658;50.920;12.238;2023-11-18T14:49:17;1.52;;;1.33;;
21000;SDS011;10658;50.920;12.238;2023-11-18T14:53:18;2.83;;;1.38;;
21000;SDS011;10658;50.920;12.238;2023-11-18T14:57:19;3.13;;;1.90;;
21000;SDS011;10658;50.920;12.238;2023-11-18T15:01:20;2.17;;;1.60;;
21000;SDS011;10658;50.920;12.238;2023-11-18T15:05:21;2.28;;;1.85;;
21000;SDS011;10658;50.920;12.238;2023-11-18T15:09:22;4.55;;;2.10;;
21000;SDS011;10658;50.920;12.238;2023-11-18T15:13:24;2.05;;;1.60;;
21000;SDS011;10658;50.920;12.238;2023-11-18T15:17:25;1.90;;;1.42;;
21000;SDS011;10658;50.920;12.238;2023-11-18T15:21:26;1.58;;;1.33;;
21000;SDS011;10658;50.920;12.238;2023-11-18T15:25:30;15.02;;;8.20;;
21000;SDS011;10658;50.920;12.238;2023-11-18T15:29:31;3.00;;;2.30;;
21000;SDS011;10658;50.920;12.238;2023-11-18T15:33:38;2.28;;;1.80;;
21000;SDS011;10658;50.920;12.238;2023-11-18T15:37:40;3.55;;;2.42;;
21000;SDS011;10658;50.920;12.238;2023-11-18T15:41:41;3.33;;;1.95;;
21000;SDS011;10658;50.920;12.238;2023-11-18T15:45:42;17.25;;;9.93;;
21000;SDS011;10658;50.920;12.238;2023-11-18T15:49:47;17.98;;;10.52;;
21000;SDS011;10658;50.920;12.238;2023-11-18T15:53:48;14.40;;;8.15;;
21000;SDS011;10658;50.920;12.238;2023-11-18T15:57:50;11.70;;;9.00;;
21000;SDS011;10658;50.920;12.238;2023-11-18T16:01:55;7.07;;;5.93;;
21000;SDS011;10658;50.920;12.238;2023-11-18T16:05:56;5.50;;;5.00;;
21000;SDS011;10658;50.920;12.238;2023-11-18T16:09:57;5.18;;;3.83;;
21000;SDS011;10658;50.920;12.238;2023-11-18T16:13:59;3.83;;;3.13;;
21000;SDS011;10658;50.920;12.238;2023-11-18T16:18:00;12.32;;;7.40;;
21000;SDS011;10658;50.920;12.238;2023-11-18T16:22:01;44.08;;;16.92;;
21000;SDS011;10658;50.920;12.238;2023-11-18T16:26:03;20.90;;;10.32;;
21000;SDS011;10658;50.920;12.238;2023-11-18T16:30:11;7.80;;;4.82;;
21000;SDS011;10658;50.920;12.238;2023-11-18T16:34:13;6.40;;;5.10;;
21000;SDS011;10658;50.920;12.238;2023-11-18T16:38:15;4.38;;;3.55;;
21000;SDS011;10658;50.920;12.238;2023-11-18T16:42:16;5.07;;;3.13;;
21000;SDS011;10658;50.920;12.238;2023-11-18T16:46:19;6.43;;;4.20;;
21000;SDS011;10658;50.920;12.238;2023-11-18T16:50:20;15.77;;;9.32;;
21000;SDS011;10658;50.920;12.238;2023-11-18T16:54:26;10.85;;;5.78;;
21000;SDS011;10658;50.920;12.238;2023-11-18T16:58:29;6.93;;;5.15;;
21000;SDS011;10658;50.920;12.238;2023-11-18T17:02:30;8.80;;;6.30;;
21000;SDS011;10658;50.920;12.238;2023-11-18T17:06:32;5.88;;;4.60;;
21000;SDS011;10658;50.920;12.238;2023-11-18T17:10:33;9.77;;;6.45;;
21000;SDS011;10658;50.920;12.238;2023-11-18T17:14:34;11.43;;;6.95;;
21000;SDS011;10658;50.920;12.238;2023-11-18T17:18:35;11.00;;;6.38;;
21000;SDS011;10658;50.920;12.238;2023-11-18T17:22:36;8.88;;;5.93;;
21000;SDS011;10658;50.920;12.238;2023-11-18T17:26:41;17.77;;;9.75;;
21000;SDS011;10658;50.920;12.238;2023-11-18T17:30:46;12.07;;;8.02;;
21000;SDS011;10658;50.920;12.238;2023-11-18T17:34:51;12.38;;;8.25;;
21000;SDS011;10658;50.920;12.238;2023-11-18T17:38:51;17.70;;;9.45;;
21000;SDS011;10658;50.920;12.238;2023-11-18T17:42:52;29.45;;;14.65;;
21000;SDS011;10658;50.920;12.238;2023-11-18T17:46:54;20.00;;;11.30;;
21000;SDS011;10658;50.920;12.238;2023-11-18T17:50:56;24.23;;;13.43;;
21000;SDS011;10658;50.920;12.238;2023-11-18T17:54:58;37.90;;;18.13;;
21000;SDS011;10658;50.920;12.238;2023-11-18T17:58:59;13.20;;;8.65;;
21000;SDS011;10658;50.920;12.238;2023-11-18T18:03:00;11.82;;;7.80;;
21000;SDS011;10658;50.920;12.238;2023-11-18T18:07:01;14.63;;;8.75;;
21000;SDS011;10658;50.920;12.238;2023-11-18T18:11:03;12.57;;;8.20;;
21000;SDS011;10658;50.920;12.238;2023-11-18T18:15:04;10.40;;;6.55;;
21000;SDS011;10658;50.920;12.238;2023-11-18T18:19:08;11.85;;;6.70;;
21000;SDS011;10658;50.920;12.238;2023-11-18T18:23:10;8.27;;;6.00;;
21000;SDS011;10658;50.920;12.238;2023-11-18T18:27:10;9.65;;;5.30;;
21000;SDS011;10658;50.920;12.238;2023-11-18T18:31:11;9.65;;;5.68;;
21000;SDS011;10658;50.920;12.238;2023-11-18T18:35:12;12.13;;;6.40;;
21000;SDS011;10658;50.920;12.238;2023-11-18T18:39:14;8.68;;;6.45;;
21000;SDS011;10658;50.920;12.238;2023-11-18T18:43:18;9.20;;;6.88;;
21000;SDS011;10658;50.920;12.238;2023-11-18T18:47:19;17.50;;;9.23;;
21000;SDS011;10658;50.920;12.238;2023-11-18T18:51:20;10.88;;;7.63;;
21000;SDS011;10658;50.920;12.238;2023-11-18T18:55:22;12.48;;;8.60;;
21000;SDS011;10658;50.920;12.238;2023-11-18T18:59:24;8.43;;;6.43;;
21000;SDS011;10658;50.920;12.238;2023-11-18T19:03:25;11.20;;;7.00;;
21000;SDS011;10658;50.920;12.238;2023-11-18T19:07:38;12.13;;;7.20;;
21000;SDS011;10658;50.920;12.238;2023-11-18T19:11:41;10.80;;;7.30;;
21000;SDS011;10658;50.920;12.238;2023-11-18T19:15:41;11.88;;;8.23;;
21000;SDS011;10658;50.920;12.238;2023-11-18T19:19:43;8.32;;;6.18;;
21000;SDS011;10658;50.920;12.238;2023-11-18T19:23:44;11.00;;;6.88;;
21000;SDS011;10658;50.920;12.238;2023-11-18T19:27:44;12.23;;;6.93;;
21000;SDS011;10658;50.920;12.238;2023-11-18T19:31:46;11.20;;;6.72;;
21000;SDS011;10658;50.920;12.238;2023-11-18T19:35:47;8.05;;;5.68;;
21000;SDS011;10658;50.920;12.238;2023-11-18T19:39:47;9.30;;;6.05;;
21000;SDS011;10658;50.920;12.238;2023-11-18T19:43:49;14.90;;;8.98;;
21000;SDS011;10658;50.920;12.238;2023-11-18T19:47:50;12.95;;;7.97;;
21000;SDS011;10658;50.920;12.238;2023-11-18T19:51:53;9.57;;;6.45;;
21000;SDS011;10658;50.920;12.238;2023-11-18T19:55:54;9.77;;;6.45;;
21000;SDS011;10658;50.920;12.238;2023-11-18T19:59:56;11.27;;;7.22;;
21000;SDS011;10658;50.920;12.238;2023-11-18T20:03:57;7.07;;;5.00;;
21000;SDS011;10658;50.920;12.238;2023-11-18T20:07:58;7.57;;;5.28;;
21000;SDS011;10658;50.920;12.238;2023-11-18T20:11:59;8.85;;;5.18;;
21000;SDS011;10658;50.920;12.238;2023-11-18T20:16:00;13.73;;;7.40;;
21000;SDS011;10658;50.920;12.238;2023-11-18T20:20:01;8.70;;;6.10;;
21000;SDS011;10658;50.920;12.238;2023-11-18T20:24:05;11.55;;;6.47;;
21000;SDS011;10658;50.920;12.238;2023-11-18T20:28:09;8.63;;;5.88;;
21000;SDS011;10658;50.920;12.238;2023-11-18T20:32:10;10.13;;;4.25;;
21000;SDS011;10658;50.920;12.238;2023-11-18T20:36:11;8.02;;;5.53;;
21000;SDS011;10658;50.920;12.238;2023-11-18T20:40:12;9.43;;;5.10;;
21000;SDS011;10658;50.920;12.238;2023-11-18T20:44:15;7.95;;;4.65;;
21000;SDS011;10658;50.920;12.238;2023-11-18T20:48:16;9.20;;;4.70;;
21000;SDS011;10658;50.920;12.238;2023-11-18T20:52:17;10.02;;;6.20;;
21000;SDS011;10658;50.920;12.238;2023-11-18T20:56:17;7.13;;;5.30;;
21000;SDS011;10658;50.920;12.238;2023-11-18T21:00:20;6.00;;;4.50;;
21000;SDS011;10658;50.920;12.238;2023-11-18T21:04:21;6.40;;;4.15;;
21000;SDS011;10658;50.920;12.238;2023-11-18T21:08:23;5.47;;;4.05;;
21000;SDS011;10658;50.920;12.238;2023-11-18T21:12:23;6.97;;;4.40;;
21000;SDS011;10658;50.920;12.238;2023-11-18T21:16:24;5.78;;;4.80;;
21000;SDS011;10658;50.920;12.238;2023-11-18T21:20:25;8.10;;;4.72;;
21000;SDS011;10658;50.920;12.238;2023-11-18T21:24:26;6.78;;;4.05;;
21000;SDS011;10658;50.920;12.238;2023-11-18T21:28:26;5.97;;;4.22;;
21000;SDS011;10658;50.920;12.238;2023-11-18T21:32:27;7.15;;;4.75;;
21000;SDS011;10658;50.920;12.238;2023-11-18T21:36:28;6.47;;;4.65;;
21000;SDS011;10658;50.920;12.238;2023-11-18T21:40:30;6.70;;;4.60;;
21000;SDS011;10658;50.920;12.238;2023-11-18T21:44:32;8.68;;;4.88;;
21000;SDS011;10658;50.920;12.238;2023-11-18T21:48:35;5.68;;;4.18;;
21000;SDS011;10658;50.920;12.238;2023-11-18T21:52:35;5.78;;;3.67;;
21000;SDS011;10658;50.920;12.238;2023-11-18T21:56:36;5.75;;;3.88;;
21000;SDS011;10658;50.920;12.238;2023-11-18T22:00:37;5.78;;;4.25;;
21000;SDS011;10658;50.920;12.238;2023-11-18T22:04:39;6.03;;;4.00;;
21000;SDS011;10658;50.920;12.238;2023-11-18T22:08:40;6.55;;;3.90;;
21000;SDS011;10658;50.920;12.238;2023-11-18T22:12:41;4.72;;;3.60;;
21000;SDS011;10658;50.920;12.238;2023-11-18T22:16:41;5.03;;;3.70;;
21000;SDS011;10658;50.920;12.238;2023-11-18T22:20:42;5.07;;;3.35;;
21000;SDS011;10658;50.920;12.238;2023-11-18T22:24:45;3.60;;;2.53;;
21000;SDS011;10658;50.920;12.238;2023-11-18T22:28:45;4.78;;;3.03;;
21000;SDS011;10658;50.920;12.238;2023-11-18T22:32:47;5.32;;;2.83;;
21000;SDS011;10658;50.920;12.238;2023-11-18T22:36:51;2.78;;;2.38;;
21000;SDS011;10658;50.920;12.238;2023-11-18T22:40:52;2.70;;;2.50;;
21000;SDS011;10658;50.920;12.238;2023-11-18T22:44:54;2.90;;;2.10;;
21000;SDS011;10658;50.920;12.238;2023-11-18T22:48:54;3.28;;;2.28;;
21000;SDS011;10658;50.920;12.238;2023-11-18T22:52:56;3.35;;;2.58;;
21000;SDS011;10658;50.920;12.238;2023-11-18T22:56:57;1.95;;;1.67;;
21000;SDS011;10658;50.920;12.238;2023-11-18T23:00:58;2.63;;;1.85;;
21000;SDS011;10658;50.920;12.238;2023-11-18T23:04:59;3.05;;;2.00;;
21000;SDS011;10658;50.920;12.238;2023-11-18T23:09:06;3.10;;;1.85;;
21000;SDS011;10658;50.920;12.238;2023-11-18T23:13:12;2.00;;;1.55;;
21000;SDS011;10658;50.920;12.238;2023-11-18T23:17:13;2.42;;;1.77;;
21000;SDS011;10658;50.920;12.238;2023-11-18T23:21:14;3.13;;;1.60;;
21000;SDS011;10658;50.920;12.238;2023-11-18T23:25:15;1.80;;;1.20;;
21000;SDS011;10658;50.920;12.238;2023-11-18T23:29:16;1.33;;;1.02;;
21000;SDS011;10658;50.920;12.238;2023-11-18T23:33:18;2.30;;;1.30;;
21000;SDS011;10658;50.920;12.238;2023-11-18T23:37:19;1.58;;;1.40;;
21000;SDS011;10658;50.920;12.238;2023-11-18T23:41:19;3.35;;;1.13;;
21000;SDS011;10658;50.920;12.238;2023-11-18T23:45:21;1.33;;;1.10;;
21000;SDS011;10658;50.920;12.238;2023-11-18T23:49:23;0.98;;;0.88;;
21000;SDS011;10658;50.920;12.238;2023-11-18T23:53:27;1.38;;;0.95;;
21000;SDS011;10658;50.920;12.238;2023-11-18T23:57:28;3.08;;;1.60;;
